Terminal Aerodrome Forecast
Issued by NWS Green Bay, WI

Home | Current Version | Previous Version | Text Only | Print | Product List | Glossary Off
Versions: 1 2 3 4 5 6 7 8 9 10 11 12 13 14 15 16 17 18 19 20 21 22 23 24 25 26 27

000
FTUS43 KGRB 270330 AAB
TAFGRB
TAF AMD
KGRB 270330Z 2704/2724 34004KT 2SM BR OVC004
      TEMPO 2704/2708 1SM -RA BR OVC003
     FM271200 01003KT 3SM BR OVC006
     FM271700 02005KT 5SM BR OVC010=

USA.gov is the U.S. government's official web portal to all federal, state and local government web resources and services.